createdAt,value
2022-11-02T00:01:45.906Z,12.70
2022-11-02T00:04:12.753Z,12.70
2022-11-02T00:06:41.290Z,12.60
2022-11-02T00:09:08.309Z,12.70
2022-11-02T00:11:36.547Z,12.70
2022-11-02T00:14:03.753Z,12.70
2022-11-02T00:16:31.430Z,12.80
2022-11-02T00:19:00.459Z,12.70
2022-11-02T00:21:28.031Z,12.80
2022-11-02T00:23:57.779Z,12.80
2022-11-02T00:26:25.381Z,12.80
2022-11-02T00:28:53.326Z,12.80
2022-11-02T00:31:20.220Z,12.90
2022-11-02T00:33:47.063Z,12.80
2022-11-02T00:36:13.943Z,12.90
2022-11-02T00:38:40.971Z,13.00
2022-11-02T00:41:07.765Z,13.00
2022-11-02T00:43:34.509Z,13.00
2022-11-02T00:46:01.582Z,13.10
2022-11-02T00:48:28.276Z,13.10
2022-11-02T00:50:55.208Z,13.10
2022-11-02T00:53:21.922Z,13.10
2022-11-02T00:55:49.095Z,13.10
2022-11-02T00:58:15.799Z,13.10
2022-11-02T01:00:42.595Z,13.10
2022-11-02T01:03:09.433Z,13.10
2022-11-02T01:05:37.687Z,13.10
2022-11-02T01:08:04.855Z,13.00
2022-11-02T01:10:31.705Z,13.00
2022-11-02T01:12:58.523Z,13.00
2022-11-02T01:15:25.185Z,13.00
2022-11-02T01:17:51.941Z,12.90
2022-11-02T01:20:18.829Z,13.00
2022-11-02T01:22:45.558Z,13.00
2022-11-02T01:25:12.493Z,12.90
2022-11-02T01:27:39.168Z,12.90
2022-11-02T01:30:06.610Z,12.90
2022-11-02T01:32:33.366Z,13.00
2022-11-02T01:35:00.209Z,13.00
2022-11-02T01:37:27.196Z,13.00
2022-11-02T01:39:53.985Z,13.00
2022-11-02T01:42:23.896Z,13.00
2022-11-02T01:44:50.884Z,12.90
2022-11-02T01:47:31.513Z,12.90
2022-11-02T01:50:05.230Z,12.90
2022-11-02T01:52:36.276Z,12.90
2022-11-02T01:55:16.504Z,12.80
2022-11-02T01:57:47.795Z,12.90
2022-11-02T02:00:16.666Z,12.80
2022-11-02T02:03:02.195Z,12.80
2022-11-02T02:05:30.941Z,12.80
2022-11-02T02:07:58.516Z,12.80
2022-11-02T02:10:25.288Z,12.90
2022-11-02T02:12:54.517Z,12.90
2022-11-02T02:15:27.964Z,12.90
2022-11-02T02:18:02.065Z,13.00
2022-11-02T02:21:05.068Z,13.00
2022-11-02T02:23:43.648Z,13.00
2022-11-02T02:26:35.096Z,13.00
2022-11-02T02:29:05.180Z,12.90
2022-11-02T02:31:55.955Z,12.90
2022-11-02T02:34:31.640Z,12.90
2022-11-02T02:37:08.154Z,12.90
2022-11-02T02:40:08.934Z,12.90
2022-11-02T02:42:44.027Z,12.80
2022-11-02T02:45:29.123Z,12.80
2022-11-02T02:48:03.044Z,12.80
2022-11-02T02:50:41.786Z,12.80
2022-11-02T02:53:09.713Z,12.70
2022-11-02T02:55:43.720Z,12.60
2022-11-02T02:58:22.336Z,12.60
2022-11-02T03:00:49.442Z,12.60
2022-11-02T03:03:23.671Z,12.60
2022-11-02T03:06:14.185Z,12.60
2022-11-02T03:08:48.068Z,12.50
2022-11-02T03:11:20.689Z,12.50
2022-11-02T03:14:24.498Z,12.60
2022-11-02T03:17:19.560Z,12.60
2022-11-02T03:19:49.384Z,12.60
2022-11-02T03:22:32.847Z,12.60
2022-11-02T03:25:16.055Z,12.70
2022-11-02T03:28:03.188Z,12.70
2022-11-02T03:30:37.095Z,12.70
2022-11-02T03:33:18.165Z,12.70
2022-11-02T03:35:56.975Z,12.70
2022-11-02T03:38:45.037Z,12.80
2022-11-02T03:41:13.920Z,12.70
2022-11-02T03:43:41.928Z,12.70
2022-11-02T03:46:11.226Z,12.70
2022-11-02T03:48:43.939Z,12.70
2022-11-02T03:51:13.948Z,12.60
2022-11-02T03:53:53.253Z,12.60
2022-11-02T03:56:35.966Z,12.60
2022-11-02T03:59:03.684Z,12.60
2022-11-02T04:01:37.010Z,12.60
2022-11-02T04:04:04.852Z,12.50
2022-11-02T04:06:32.406Z,12.50
2022-11-02T04:09:02.437Z,12.50
2022-11-02T04:11:49.645Z,12.50
2022-11-02T04:14:35.180Z,12.50
2022-11-02T04:17:20.711Z,12.50
2022-11-02T04:19:49.887Z,12.50
2022-11-02T04:22:36.047Z,12.50
2022-11-02T04:25:21.215Z,12.50
2022-11-02T04:27:52.828Z,12.50
2022-11-02T04:30:21.590Z,12.40
2022-11-02T04:33:09.129Z,12.50
2022-11-02T04:35:37.522Z,12.50
2022-11-02T04:38:23.289Z,12.40
2022-11-02T04:41:09.929Z,12.40
2022-11-02T04:43:36.892Z,12.30
2022-11-02T04:46:03.710Z,12.40
2022-11-02T04:48:30.431Z,12.40
2022-11-02T04:50:58.522Z,12.40
2022-11-02T04:53:25.203Z,12.40
2022-11-02T04:55:51.971Z,12.40
2022-11-02T04:58:18.662Z,12.40
2022-11-02T05:00:45.327Z,12.40
2022-11-02T05:03:12.658Z,12.30
2022-11-02T05:05:39.866Z,12.40
2022-11-02T05:08:06.943Z,12.30
2022-11-02T05:10:35.040Z,12.30
2022-11-02T05:13:01.857Z,12.40
2022-11-02T05:15:28.541Z,12.40
2022-11-02T05:17:55.275Z,12.40
2022-11-02T05:20:23.195Z,12.50
2022-11-02T05:22:49.978Z,12.50
2022-11-02T05:25:16.790Z,12.40
2022-11-02T05:27:43.524Z,12.40
2022-11-02T05:30:11.048Z,12.40
2022-11-02T05:32:37.737Z,12.40
2022-11-02T05:35:04.801Z,12.40
2022-11-02T05:37:31.538Z,12.40
2022-11-02T05:39:59.649Z,12.40
2022-11-02T05:42:26.402Z,12.40
2022-11-02T05:44:53.163Z,12.50
2022-11-02T05:47:19.936Z,12.40
2022-11-02T05:49:46.692Z,12.40
2022-11-02T05:52:13.422Z,12.40
2022-11-02T05:54:40.125Z,12.30
2022-11-02T05:57:06.904Z,12.30
2022-11-02T05:59:33.637Z,12.30
2022-11-02T06:02:00.389Z,12.30
2022-11-02T06:04:27.154Z,12.30
2022-11-02T06:06:53.864Z,12.20
2022-11-02T06:09:20.669Z,12.20
2022-11-02T06:11:47.506Z,12.30
2022-11-02T06:14:14.207Z,12.20
2022-11-02T06:16:40.901Z,12.20
2022-11-02T06:19:07.710Z,12.30
2022-11-02T06:21:34.530Z,12.20
2022-11-02T06:24:01.210Z,12.10
2022-11-02T06:26:27.938Z,12.20
2022-11-02T06:28:54.687Z,12.20
2022-11-02T06:31:21.422Z,12.10
2022-11-02T06:33:48.227Z,12.10
2022-11-02T06:36:15.033Z,12.10
2022-11-02T06:38:42.166Z,12.10
2022-11-02T06:41:09.164Z,12.10
2022-11-02T06:43:38.192Z,12.10
2022-11-02T06:46:05.676Z,12.10
2022-11-02T06:48:35.346Z,12.10
2022-11-02T06:51:04.780Z,12.20
2022-11-02T06:53:31.640Z,12.10
2022-11-02T06:55:59.645Z,12.20
2022-11-02T06:58:27.322Z,12.20
2022-11-02T07:00:59.453Z,12.10
2022-11-02T07:03:26.914Z,12.20
2022-11-02T07:05:54.275Z,12.20
2022-11-02T07:08:21.992Z,12.20
2022-11-02T07:10:49.860Z,12.20
2022-11-02T07:13:17.088Z,12.20
2022-11-02T07:15:44.041Z,12.20
2022-11-02T07:18:10.797Z,12.20
2022-11-02T07:20:38.403Z,12.20
2022-11-02T07:23:06.012Z,12.20
2022-11-02T07:25:33.767Z,12.10
2022-11-02T07:28:02.154Z,12.20
2022-11-02T07:30:30.632Z,12.20
2022-11-02T07:32:57.612Z,12.20
2022-11-02T07:35:24.570Z,12.20
2022-11-02T07:38:00.224Z,12.20
2022-11-02T07:40:28.383Z,12.10
2022-11-02T07:42:55.690Z,12.20
2022-11-02T07:45:23.488Z,12.20
2022-11-02T07:47:50.864Z,12.10
2022-11-02T07:50:20.976Z,12.10
2022-11-02T07:52:49.917Z,12.10
2022-11-02T07:55:18.933Z,12.10
2022-11-02T07:58:04.831Z,12.10
2022-11-02T08:00:34.134Z,12.20
2022-11-02T08:03:02.368Z,12.20
2022-11-02T08:05:30.834Z,12.20
2022-11-02T08:08:05.882Z,12.20
2022-11-02T08:10:38.936Z,12.20
2022-11-02T08:13:12.233Z,12.20
2022-11-02T08:15:39.293Z,12.30
2022-11-02T08:18:06.559Z,12.20
2022-11-02T08:20:35.377Z,12.20
2022-11-02T08:23:02.618Z,12.20
2022-11-02T08:25:29.388Z,12.20
2022-11-02T08:27:58.763Z,12.20
2022-11-02T08:30:31.106Z,12.20
2022-11-02T08:33:15.690Z,12.30
2022-11-02T08:35:47.768Z,12.40
2022-11-02T08:38:15.093Z,12.30
2022-11-02T08:40:42.389Z,12.40
2022-11-02T08:43:11.591Z,12.40
2022-11-02T08:46:08.886Z,12.50
2022-11-02T08:48:27.873Z,12.50
2022-11-02T08:50:55.712Z,12.50
2022-11-02T08:53:22.670Z,12.50
2022-11-02T08:55:49.402Z,12.60
2022-11-02T08:58:16.191Z,12.60
2022-11-02T09:00:42.989Z,12.60
2022-11-02T09:03:13.792Z,12.60
2022-11-02T09:05:44.557Z,12.60
2022-11-02T09:08:13.855Z,12.60
2022-11-02T09:10:40.995Z,12.70
2022-11-02T09:13:10.566Z,12.60
2022-11-02T09:15:38.016Z,12.60
2022-11-02T09:18:06.234Z,12.60
2022-11-02T09:20:34.069Z,12.70
2022-11-02T09:23:01.224Z,12.70
2022-11-02T09:25:27.974Z,12.70
2022-11-02T09:27:56.273Z,12.70
2022-11-02T09:30:24.765Z,12.70
2022-11-02T09:32:59.664Z,12.70
2022-11-02T09:35:28.657Z,12.70
2022-11-02T09:37:55.630Z,12.80
2022-11-02T09:40:24.770Z,12.90
2022-11-02T09:43:32.475Z,13.00
2022-11-02T09:46:11.445Z,13.00
2022-11-02T09:48:48.823Z,13.00
2022-11-02T09:51:20.339Z,13.20
2022-11-02T09:54:03.425Z,13.30
2022-11-02T09:56:31.583Z,13.40
2022-11-02T09:59:05.669Z,13.50
2022-11-02T10:01:55.403Z,13.40
2022-11-02T10:04:43.450Z,13.50
2022-11-02T10:07:17.108Z,13.60
2022-11-02T10:10:11.236Z,13.80
2022-11-02T10:12:54.137Z,13.70
2022-11-02T10:15:23.383Z,13.80
2022-11-02T10:17:54.702Z,13.70
2022-11-02T10:20:27.585Z,13.80
2022-11-02T10:23:07.247Z,13.70
2022-11-02T10:25:36.176Z,13.60
2022-11-02T10:28:13.930Z,13.70
2022-11-02T10:30:43.006Z,13.80
2022-11-02T10:33:20.544Z,13.90
2022-11-02T10:36:18.039Z,13.90
2022-11-02T10:39:16.260Z,13.90
2022-11-02T10:42:03.173Z,13.90
2022-11-02T10:45:03.781Z,14.00
2022-11-02T10:48:02.198Z,14.10
2022-11-02T10:50:37.101Z,14.30
2022-11-02T10:53:27.198Z,14.30
2022-11-02T10:56:35.884Z,14.20
2022-11-02T10:59:04.144Z,14.20
2022-11-02T11:01:32.168Z,14.30
2022-11-02T11:04:02.786Z,14.40
2022-11-02T11:06:41.250Z,14.50
2022-11-02T11:09:26.447Z,14.70
2022-11-02T11:11:58.303Z,14.90
2022-11-02T11:20:37.098Z,14.90
2022-11-02T11:23:20.805Z,14.80
2022-11-02T11:25:59.799Z,14.80
2022-11-02T11:28:47.298Z,14.60
2022-11-02T11:31:17.302Z,14.60
2022-11-02T11:33:46.184Z,14.80
2022-11-02T11:36:27.009Z,15.10
2022-11-02T11:38:55.726Z,15.10
2022-11-02T11:41:23.759Z,15.00
2022-11-02T11:43:52.534Z,14.80
2022-11-02T11:46:19.681Z,14.60
2022-11-02T11:48:56.699Z,14.60
2022-11-02T11:51:41.455Z,14.80
2022-11-02T11:54:22.884Z,15.00
2022-11-02T11:56:52.010Z,15.00
2022-11-02T11:59:23.386Z,14.90
2022-11-02T12:01:55.119Z,14.90
2022-11-02T12:04:33.768Z,14.80
2022-11-02T12:07:18.853Z,15.00
2022-11-02T12:10:09.615Z,14.90
2022-11-02T12:12:57.954Z,15.00
2022-11-02T12:16:06.013Z,15.30
2022-11-02T12:18:42.539Z,15.60
2022-11-02T12:21:38.068Z,15.80
2022-11-02T12:24:23.425Z,16.20
2022-11-02T12:27:01.918Z,16.10
2022-11-02T12:29:34.419Z,16.00
2022-11-02T12:32:19.306Z,16.30
2022-11-02T12:35:03.004Z,16.50
2022-11-02T12:38:13.364Z,16.30
2022-11-02T12:41:08.024Z,16.20
2022-11-02T12:43:44.890Z,15.90
2022-11-02T12:46:47.590Z,15.80
2022-11-02T12:49:36.074Z,15.80
2022-11-02T12:52:12.076Z,15.90
2022-11-02T12:54:56.412Z,15.70
2022-11-02T12:57:28.446Z,15.70
2022-11-02T13:00:07.048Z,15.60
2022-11-02T13:02:43.860Z,15.30
2022-11-02T13:05:21.196Z,15.40
2022-11-02T13:07:57.049Z,15.30
2022-11-02T13:10:28.471Z,15.30
2022-11-02T13:12:59.098Z,15.50
2022-11-02T13:15:27.654Z,15.50
2022-11-02T13:18:04.199Z,15.60
2022-11-02T13:20:41.471Z,15.60
2022-11-02T13:23:26.286Z,15.90
2022-11-02T13:25:59.258Z,16.10
2022-11-02T13:28:55.677Z,16.30
2022-11-02T13:31:37.575Z,16.20
2022-11-02T13:34:12.772Z,16.40
2022-11-02T13:36:39.998Z,16.50
2022-11-02T13:39:31.708Z,16.60
2022-11-02T13:42:24.034Z,16.60
2022-11-02T13:45:19.347Z,16.70
2022-11-02T13:48:20.130Z,16.90
2022-11-02T13:50:53.565Z,16.80
2022-11-02T13:53:30.745Z,16.90
2022-11-02T13:56:11.560Z,16.90
2022-11-02T13:58:46.136Z,16.90
2022-11-02T14:01:17.796Z,17.00
2022-11-02T14:04:01.847Z,16.80
2022-11-02T14:06:31.766Z,16.70
2022-11-02T14:09:02.261Z,16.60
2022-11-02T14:11:37.749Z,16.40
2022-11-02T14:14:04.382Z,16.50
2022-11-02T14:16:40.024Z,16.50
2022-11-02T14:19:20.331Z,16.40
2022-11-02T14:21:59.122Z,16.30
2022-11-02T14:24:36.019Z,16.10
2022-11-02T14:27:25.443Z,16.00
2022-11-02T14:29:56.435Z,16.10
2022-11-02T14:33:01.543Z,16.10
2022-11-02T14:35:40.291Z,16.20
2022-11-02T14:38:39.323Z,16.10
2022-11-02T14:41:14.641Z,16.00
2022-11-02T14:43:47.130Z,15.80
2022-11-02T14:46:50.902Z,15.70
2022-11-02T14:49:29.838Z,15.70
2022-11-02T14:52:19.700Z,15.60
2022-11-02T14:54:59.920Z,15.70
2022-11-02T14:57:42.765Z,15.50
2022-11-02T15:00:37.360Z,15.50
2022-11-02T15:03:07.546Z,15.50
2022-11-02T15:05:39.451Z,15.50
2022-11-02T15:08:15.140Z,15.50
2022-11-02T15:10:46.276Z,15.30
2022-11-02T15:13:19.188Z,15.30
2022-11-02T15:16:11.708Z,15.20
2022-11-02T15:18:40.540Z,15.20
2022-11-02T15:21:10.095Z,15.00
2022-11-02T15:24:16.583Z,14.80
2022-11-02T15:26:56.881Z,14.60
2022-11-02T15:29:26.677Z,14.50
2022-11-02T15:31:57.063Z,14.40
2022-11-02T15:34:45.597Z,14.30
2022-11-02T15:37:50.544Z,14.20
2022-11-02T15:40:29.123Z,14.00
2022-11-02T15:43:27.197Z,14.00
2022-11-02T15:46:08.316Z,13.90
2022-11-02T15:48:51.188Z,13.80
2022-11-02T15:51:20.871Z,13.70
2022-11-02T15:54:09.646Z,13.80
2022-11-02T15:56:57.729Z,13.60
2022-11-02T15:59:57.717Z,13.60
2022-11-02T16:02:28.060Z,13.50
2022-11-02T16:05:00.659Z,13.40
2022-11-02T16:07:38.326Z,13.40
2022-11-02T16:10:29.682Z,13.30
2022-11-02T16:13:19.077Z,13.30
2022-11-02T16:15:48.797Z,13.20
2022-11-02T16:18:42.994Z,13.10
2022-11-02T16:21:15.186Z,13.10
2022-11-02T16:24:03.169Z,13.10
2022-11-02T16:26:30.150Z,13.00
2022-11-02T16:28:59.387Z,12.90
2022-11-02T16:31:33.537Z,12.90
2022-11-02T16:34:31.808Z,12.90
2022-11-02T16:37:04.735Z,12.80
2022-11-02T16:39:37.542Z,12.80
2022-11-02T16:42:13.992Z,12.70
2022-11-02T16:44:41.039Z,12.70
2022-11-02T16:47:07.999Z,12.60
2022-11-02T16:49:57.550Z,12.60
2022-11-02T16:52:24.356Z,12.50
2022-11-02T16:54:51.112Z,12.50
2022-11-02T16:57:45.095Z,12.40
2022-11-02T17:00:19.799Z,12.40
2022-11-02T17:02:47.285Z,12.40
2022-11-02T17:05:25.435Z,12.30
2022-11-02T17:07:55.247Z,12.30
2022-11-02T17:10:26.880Z,12.20
2022-11-02T17:12:55.268Z,12.20
2022-11-02T17:15:32.208Z,12.20
2022-11-02T17:18:08.544Z,12.10
2022-11-02T17:20:37.506Z,12.10
2022-11-02T17:23:07.087Z,12.10
2022-11-02T17:25:34.974Z,12.10
2022-11-02T17:28:04.900Z,12.10
2022-11-02T17:30:34.920Z,12.00
2022-11-02T17:33:08.252Z,12.00
2022-11-02T17:35:35.488Z,12.10
2022-11-02T17:45:38.935Z,12.00
2022-11-02T17:48:07.971Z,11.90
2022-11-02T17:50:37.676Z,11.90
2022-11-02T17:53:06.211Z,11.90
2022-11-02T17:55:34.811Z,11.80
2022-11-02T17:58:01.687Z,11.80
2022-11-02T18:00:28.960Z,11.70
2022-11-02T18:02:58.544Z,11.70
2022-11-02T18:05:37.341Z,11.70
2022-11-02T18:08:06.004Z,11.60
2022-11-02T18:10:37.007Z,11.60
2022-11-02T18:13:04.746Z,11.60
2022-11-02T18:15:33.387Z,11.60
2022-11-02T18:18:00.283Z,11.60
2022-11-02T18:20:28.735Z,11.60
2022-11-02T18:22:57.044Z,11.60
2022-11-02T18:25:30.321Z,11.60
2022-11-02T18:28:01.985Z,11.50
2022-11-02T18:30:29.729Z,11.50
2022-11-02T18:32:57.144Z,11.50
2022-11-02T18:35:24.790Z,11.50
2022-11-02T18:37:52.309Z,11.50
2022-11-02T18:40:20.317Z,11.50
2022-11-02T18:42:47.400Z,11.50
2022-11-02T18:45:15.815Z,11.50
2022-11-02T18:47:42.801Z,11.60
2022-11-02T18:50:12.464Z,11.60
2022-11-02T18:52:40.279Z,11.60
2022-11-02T18:55:07.662Z,11.60
2022-11-02T18:57:34.600Z,11.60
2022-11-02T19:00:02.891Z,11.70
2022-11-02T19:02:30.003Z,11.80
2022-11-02T19:04:57.118Z,11.70
2022-11-02T19:07:42.432Z,11.70
2022-11-02T19:10:09.952Z,11.70
2022-11-02T19:12:36.895Z,11.70
2022-11-02T19:15:04.470Z,11.70
2022-11-02T19:17:31.476Z,11.70
2022-11-02T19:19:58.284Z,11.70
2022-11-02T19:22:26.342Z,11.70
2022-11-02T19:24:53.147Z,11.70
2022-11-02T19:27:21.753Z,11.70
2022-11-02T19:29:49.003Z,11.70
2022-11-02T19:32:16.062Z,11.70
2022-11-02T19:34:43.544Z,11.70
2022-11-02T19:37:10.418Z,11.80
2022-11-02T19:39:37.170Z,11.80
2022-11-02T19:42:04.016Z,11.70
2022-11-02T19:44:31.018Z,11.70
2022-11-02T19:46:57.817Z,11.70
2022-11-02T19:49:24.577Z,11.70
2022-11-02T19:51:51.404Z,11.70
2022-11-02T19:54:19.502Z,11.70
2022-11-02T19:56:46.697Z,11.70
2022-11-02T19:59:13.551Z,11.80
2022-11-02T20:01:43.441Z,11.70
2022-11-02T20:04:10.624Z,11.60
2022-11-02T20:06:42.285Z,11.60
2022-11-02T20:09:18.193Z,11.60
2022-11-02T20:11:46.385Z,11.60
2022-11-02T20:14:18.040Z,11.60
2022-11-02T20:16:58.193Z,11.60
2022-11-02T20:19:25.702Z,11.60
2022-11-02T20:21:52.452Z,11.60
2022-11-02T20:24:19.185Z,11.60
2022-11-02T20:26:45.941Z,11.60
2022-11-02T20:29:15.468Z,11.60
2022-11-02T20:31:44.959Z,11.60
2022-11-02T20:34:12.902Z,11.60
2022-11-02T20:36:39.851Z,11.60
2022-11-02T20:39:07.436Z,11.60
2022-11-02T20:41:34.353Z,11.60
2022-11-02T20:44:01.100Z,11.60
2022-11-02T20:46:38.926Z,11.60
2022-11-02T20:49:20.531Z,11.60
2022-11-02T20:51:54.545Z,11.60
2022-11-02T20:54:22.255Z,11.60
2022-11-02T20:56:58.474Z,11.60
2022-11-02T20:59:25.210Z,11.60
2022-11-02T21:01:52.135Z,11.50
2022-11-02T21:04:21.253Z,11.50
2022-11-02T21:06:53.041Z,11.50
2022-11-02T21:09:19.847Z,11.50
2022-11-02T21:12:05.567Z,11.50
2022-11-02T21:14:32.375Z,11.50
2022-11-02T21:16:59.268Z,11.50
2022-11-02T21:19:25.949Z,11.60
2022-11-02T21:21:58.079Z,11.60
2022-11-02T21:24:26.962Z,11.60
2022-11-02T21:26:53.681Z,11.60
2022-11-02T21:29:21.166Z,11.60
2022-11-02T21:31:48.237Z,11.60
2022-11-02T21:34:15.138Z,11.50
2022-11-02T21:36:41.888Z,11.60
2022-11-02T21:39:08.611Z,11.50
2022-11-02T21:41:38.440Z,11.50
2022-11-02T21:44:06.562Z,11.50
2022-11-02T21:46:33.499Z,11.50
2022-11-02T21:49:00.351Z,11.50
2022-11-02T21:51:27.247Z,11.50
2022-11-02T21:53:54.486Z,11.50
2022-11-02T21:56:25.625Z,11.50
2022-11-02T21:58:53.925Z,11.40
2022-11-02T22:01:44.535Z,11.40
2022-11-02T22:04:15.922Z,11.20
2022-11-02T22:06:43.007Z,11.20
2022-11-02T22:09:12.493Z,11.10
2022-11-02T22:11:39.550Z,11.10
2022-11-02T22:14:06.584Z,11.00
2022-11-02T22:16:36.280Z,10.90
2022-11-02T22:19:09.563Z,10.90
2022-11-02T22:21:39.479Z,10.90
2022-11-02T22:24:07.129Z,10.90
2022-11-02T22:26:35.705Z,10.90
2022-11-02T22:29:03.608Z,10.90
2022-11-02T22:31:39.143Z,10.90
2022-11-02T22:34:08.148Z,10.90
2022-11-02T22:36:35.679Z,10.90
2022-11-02T22:39:04.523Z,10.90
2022-11-02T22:41:36.776Z,10.90
2022-11-02T22:44:07.694Z,10.90
2022-11-02T22:46:37.356Z,11.00
2022-11-02T22:49:05.124Z,11.00
2022-11-02T22:51:35.402Z,11.00
2022-11-02T22:54:04.218Z,11.00
2022-11-02T22:56:32.311Z,11.10
2022-11-02T22:58:59.469Z,11.10
2022-11-02T23:01:28.472Z,11.10
2022-11-02T23:03:55.379Z,11.10
2022-11-02T23:06:22.901Z,11.10
2022-11-02T23:08:51.901Z,11.10
2022-11-02T23:11:25.405Z,11.00
2022-11-02T23:13:58.129Z,11.00
2022-11-02T23:16:30.463Z,11.00
2022-11-02T23:19:29.223Z,11.00
2022-11-02T23:22:18.749Z,11.00
2022-11-02T23:25:05.228Z,11.00
2022-11-02T23:27:33.974Z,11.00
2022-11-02T23:30:19.313Z,11.00
2022-11-02T23:32:46.458Z,10.90
2022-11-02T23:35:31.823Z,10.90
2022-11-02T23:38:03.814Z,10.90
2022-11-02T23:40:30.682Z,10.90
2022-11-02T23:42:57.502Z,10.90
2022-11-02T23:45:24.433Z,10.90
2022-11-02T23:47:58.014Z,10.90
2022-11-02T23:50:47.259Z,10.90
2022-11-02T23:53:35.637Z,10.90
2022-11-02T23:56:22.033Z,10.80
2022-11-02T23:59:06.155Z,10.80
